createdAt,value
2018-12-18T00:03:09.822Z,23.33
2018-12-18T00:08:12.478Z,23.33
2018-12-18T00:13:15.099Z,23.50
2018-12-18T00:18:17.797Z,24.33
2018-12-18T00:23:20.892Z,23.67
2018-12-18T00:28:23.717Z,24.60
2018-12-18T00:33:26.693Z,23.17
2018-12-18T00:38:29.370Z,23.63
2018-12-18T00:43:32.120Z,23.23
2018-12-18T00:48:34.838Z,24.00
2018-12-18T00:53:37.618Z,24.00
2018-12-18T00:58:40.245Z,23.37
2018-12-18T01:03:42.823Z,21.93
2018-12-18T01:08:46.095Z,22.93
2018-12-18T01:13:48.631Z,22.47
2018-12-18T01:18:51.286Z,21.67
2018-12-18T01:23:53.844Z,22.00
2018-12-18T01:28:56.483Z,21.83
2018-12-18T01:33:59.509Z,22.23
2018-12-18T01:39:02.509Z,21.27
2018-12-18T01:44:05.312Z,21.27
2018-12-18T01:49:08.108Z,20.53
2018-12-18T01:54:10.829Z,20.40
2018-12-18T01:59:13.558Z,20.10
2018-12-18T02:04:16.304Z,21.00
2018-12-18T02:09:19.521Z,19.23
2018-12-18T02:14:22.179Z,18.47
2018-12-18T02:19:24.769Z,20.27
2018-12-18T02:24:27.371Z,19.42
2018-12-18T02:29:30.061Z,18.90
2018-12-18T02:34:33.257Z,20.70
2018-12-18T02:39:36.072Z,18.93
2018-12-18T02:44:38.815Z,20.63
2018-12-18T02:49:41.861Z,18.97
2018-12-18T02:54:44.445Z,19.37
2018-12-18T02:59:47.188Z,20.83
2018-12-18T03:04:49.794Z,20.23
2018-12-18T03:09:52.354Z,20.00
2018-12-18T03:14:55.190Z,18.70
2018-12-18T03:19:57.787Z,20.33
2018-12-18T03:25:00.375Z,19.93
2018-12-18T03:30:03.067Z,19.17
2018-12-18T03:35:05.872Z,20.23
2018-12-18T03:40:08.538Z,19.13
2018-12-18T03:45:11.984Z,20.10
2018-12-18T03:50:14.802Z,19.93
2018-12-18T03:55:17.513Z,20.30
2018-12-18T04:00:20.130Z,19.70
2018-12-18T04:05:22.891Z,19.23
2018-12-18T04:10:26.312Z,19.77
2018-12-18T04:15:28.896Z,18.33
2018-12-18T04:20:31.457Z,18.10
2018-12-18T04:25:34.017Z,19.07
2018-12-18T04:30:36.674Z,20.13
2018-12-18T04:35:39.980Z,18.97
2018-12-18T04:40:43.415Z,18.30
2018-12-18T04:45:48.316Z,18.87
2018-12-18T04:50:51.018Z,19.23
2018-12-18T04:55:53.580Z,18.03
2018-12-18T05:00:56.352Z,18.33
2018-12-18T05:05:59.146Z,18.73
2018-12-18T05:11:02.493Z,19.03
2018-12-18T05:16:05.263Z,19.02
2018-12-18T05:21:07.967Z,18.03
2018-12-18T05:26:10.623Z,18.53
2018-12-18T05:31:13.461Z,18.03
2018-12-18T05:36:16.089Z,19.20
2018-12-18T05:41:18.837Z,18.97
2018-12-18T05:46:21.531Z,17.93
2018-12-18T05:51:25.486Z,19.27
2018-12-18T05:56:28.159Z,18.27
2018-12-18T06:01:30.770Z,18.30
2018-12-18T06:06:33.362Z,19.27
2018-12-18T06:11:36.067Z,18.53
2018-12-18T06:16:38.724Z,19.80
2018-12-18T06:21:42.099Z,19.60
2018-12-18T06:26:44.649Z,18.67
2018-12-18T06:31:47.467Z,19.90
2018-12-18T06:36:50.041Z,18.93
2018-12-18T06:41:52.762Z,19.43
2018-12-18T06:46:55.376Z,18.10
2018-12-18T06:51:58.159Z,18.80
2018-12-18T06:57:00.756Z,17.23
2018-12-18T07:02:03.554Z,17.40
2018-12-18T07:07:06.623Z,18.00
2018-12-18T07:12:09.579Z,17.93
2018-12-18T07:17:12.268Z,18.23
2018-12-18T07:22:15.060Z,17.60
2018-12-18T07:27:17.770Z,17.60
2018-12-18T07:32:20.443Z,18.47
2018-12-18T07:37:23.748Z,18.17
2018-12-18T07:42:26.353Z,17.53
2018-12-18T07:47:29.055Z,18.50
2018-12-18T07:52:31.866Z,18.07
2018-12-18T07:57:34.440Z,17.93
2018-12-18T08:02:37.354Z,17.33
2018-12-18T08:07:40.156Z,16.30
2018-12-18T08:12:42.837Z,17.73
2018-12-18T08:17:45.485Z,17.70
2018-12-18T08:22:48.076Z,18.27
2018-12-18T08:27:51.337Z,16.97
2018-12-18T08:32:53.940Z,16.20
2018-12-18T08:37:56.706Z,17.32
2018-12-18T08:42:59.448Z,15.90
2018-12-18T08:48:02.076Z,16.30
2018-12-18T08:53:05.112Z,15.53
2018-12-18T08:58:07.835Z,15.97
2018-12-18T09:03:10.955Z,16.23
2018-12-18T09:08:13.630Z,16.07
2018-12-18T09:13:16.221Z,14.10
2018-12-18T09:18:19.047Z,14.40
2018-12-18T09:23:21.846Z,13.83
2018-12-18T09:28:25.034Z,12.63
2018-12-18T09:33:27.886Z,14.13
2018-12-18T09:38:36.022Z,13.73
2018-12-18T09:43:45.161Z,14.57
2018-12-18T09:48:47.724Z,14.33
2018-12-18T09:53:50.524Z,12.97
2018-12-18T09:58:53.707Z,11.90
2018-12-18T10:03:56.439Z,11.70
2018-12-18T10:08:59.126Z,10.57
2018-12-18T10:14:02.193Z,10.65
2018-12-18T10:19:04.837Z,9.60
2018-12-18T10:24:07.567Z,10.17
2018-12-18T10:29:10.216Z,8.90
2018-12-18T10:34:12.815Z,9.13
2018-12-18T10:39:15.453Z,8.53
2018-12-18T10:44:18.100Z,8.28
2018-12-18T10:49:20.832Z,8.07
2018-12-18T10:54:23.490Z,8.93
2018-12-18T10:59:26.313Z,8.43
2018-12-18T11:04:29.212Z,8.10
2018-12-18T11:09:31.801Z,8.47
2018-12-18T11:14:34.606Z,8.13
2018-12-18T11:19:37.301Z,8.50
2018-12-18T11:24:40.599Z,8.67
2018-12-18T11:29:43.872Z,8.80
2018-12-18T11:34:46.586Z,7.77
2018-12-18T11:39:49.289Z,8.23
2018-12-18T11:44:52.011Z,8.90
2018-12-18T11:49:54.921Z,8.10
2018-12-18T11:54:57.748Z,7.53
2018-12-18T12:00:00.367Z,7.53
2018-12-18T12:05:02.918Z,7.85
2018-12-18T12:10:06.325Z,7.87
2018-12-18T12:15:09.126Z,7.87
2018-12-18T12:20:11.765Z,11.63
2018-12-18T12:25:14.524Z,12.83
2018-12-18T12:30:17.121Z,14.77
2018-12-18T12:35:19.737Z,15.83
2018-12-18T12:40:23.226Z,15.77
2018-12-18T12:45:26.130Z,15.33
2018-12-18T12:50:28.798Z,14.80
2018-12-18T12:55:32.215Z,16.17
2018-12-18T13:00:34.947Z,15.13
2018-12-18T13:05:37.708Z,12.73
2018-12-18T13:10:41.049Z,9.60
2018-12-18T13:15:43.658Z,9.13
2018-12-18T13:20:46.386Z,7.40
2018-12-18T13:25:49.576Z,7.37
2018-12-18T13:30:52.353Z,8.10
2018-12-18T13:35:55.154Z,9.93
2018-12-18T13:40:57.802Z,10.87
2018-12-18T13:46:00.542Z,12.53
2018-12-18T13:51:03.241Z,15.20
2018-12-18T13:56:05.864Z,16.03
2018-12-18T14:01:08.434Z,15.00
2018-12-18T14:06:11.018Z,16.17
2018-12-18T14:11:13.652Z,15.33
2018-12-18T14:16:16.203Z,16.60
2018-12-18T14:21:18.796Z,16.97
2018-12-18T14:26:21.356Z,16.23
2018-12-18T14:31:23.958Z,16.77
2018-12-18T14:36:26.556Z,19.37
2018-12-18T14:41:29.871Z,18.77
2018-12-18T14:46:32.446Z,18.67
2018-12-18T14:51:35.097Z,19.93
2018-12-18T14:56:37.657Z,24.87
2018-12-18T15:01:40.253Z,20.37
2018-12-18T15:06:43.511Z,21.47
2018-12-18T15:11:46.687Z,19.50
2018-12-18T15:16:49.620Z,21.37
2018-12-18T15:21:52.209Z,23.23
2018-12-18T15:26:55.160Z,23.13
2018-12-18T15:31:57.804Z,26.63
2018-12-18T15:37:00.447Z,22.53
2018-12-18T15:42:04.126Z,22.93
2018-12-18T15:47:06.946Z,21.33
2018-12-18T15:52:10.143Z,23.43
2018-12-18T15:57:13.018Z,20.17
2018-12-18T16:02:15.836Z,20.20
2018-12-18T16:07:18.604Z,19.37
2018-12-18T16:12:21.901Z,19.90
2018-12-18T16:17:24.657Z,19.83
2018-12-18T16:22:27.302Z,19.10
2018-12-18T16:27:30.456Z,20.20
2018-12-18T16:32:33.369Z,21.50
2018-12-18T16:37:36.159Z,28.73
2018-12-18T16:42:38.965Z,25.97
2018-12-18T16:47:41.764Z,23.67
2018-12-18T16:52:44.478Z,22.30
2018-12-18T16:57:48.026Z,22.87
2018-12-18T17:02:50.741Z,23.50
2018-12-18T17:07:53.353Z,21.80
2018-12-18T17:12:56.249Z,23.90
2018-12-18T17:17:59.523Z,23.93
2018-12-18T17:23:02.172Z,23.50
2018-12-18T17:28:04.931Z,22.13
2018-12-18T17:33:07.576Z,21.23
2018-12-18T17:38:10.245Z,22.40
2018-12-18T17:43:13.169Z,21.70
2018-12-18T17:48:15.788Z,22.47
2018-12-18T17:53:18.330Z,25.00
2018-12-18T17:58:20.917Z,23.07
2018-12-18T18:03:23.661Z,22.97
2018-12-18T18:08:26.353Z,22.40
2018-12-18T18:13:28.920Z,21.53
2018-12-18T18:18:31.591Z,22.33
2018-12-18T18:23:34.221Z,21.33
2018-12-18T18:28:37.079Z,21.03
2018-12-18T18:33:39.803Z,22.10
2018-12-18T18:38:42.780Z,19.80
2018-12-18T18:43:45.377Z,20.80
2018-12-18T18:48:47.990Z,19.13
2018-12-18T18:53:50.878Z,31.53
2018-12-18T18:58:53.533Z,27.00
2018-12-18T19:03:56.153Z,18.53
2018-12-18T19:08:58.751Z,18.97
2018-12-18T19:14:01.313Z,18.60
2018-12-18T19:19:04.678Z,19.27
2018-12-18T19:24:07.492Z,18.30
2018-12-18T19:29:10.538Z,18.83
2018-12-18T19:34:13.447Z,18.20
2018-12-18T19:39:16.753Z,18.53
2018-12-18T19:44:19.655Z,17.97
2018-12-18T19:49:22.564Z,18.40
2018-12-18T19:54:26.281Z,17.50
2018-12-18T19:59:30.408Z,17.93
2018-12-18T20:04:34.444Z,17.77
2018-12-18T20:09:37.437Z,26.83
2018-12-18T20:14:40.654Z,17.63
2018-12-18T20:19:44.688Z,17.23
2018-12-18T20:24:47.684Z,15.67
2018-12-18T20:29:52.419Z,16.07
2018-12-18T20:34:56.328Z,15.80
2018-12-18T20:39:58.963Z,17.73
2018-12-18T20:45:01.542Z,17.10
2018-12-18T20:50:05.181Z,15.50
2018-12-18T20:55:07.863Z,16.20
2018-12-18T21:00:10.800Z,16.27
2018-12-18T21:05:14.279Z,16.00
2018-12-18T21:10:17.646Z,17.33
2018-12-18T21:15:20.291Z,16.37
2018-12-18T21:20:24.145Z,15.87
2018-12-18T21:25:27.338Z,16.50
2018-12-18T21:30:30.003Z,17.07
2018-12-18T21:35:32.887Z,15.80
2018-12-18T21:40:36.228Z,15.97
2018-12-18T21:45:39.097Z,15.10
2018-12-18T21:50:42.044Z,15.57
2018-12-18T21:55:44.684Z,16.03
2018-12-18T22:00:47.945Z,15.33
2018-12-18T22:05:50.639Z,16.47
2018-12-18T22:10:53.200Z,15.63
2018-12-18T22:15:56.561Z,16.00
2018-12-18T22:20:59.333Z,17.00
2018-12-18T22:26:02.168Z,15.50
2018-12-18T22:31:05.793Z,16.70
2018-12-18T22:36:08.394Z,16.23
2018-12-18T22:41:11.037Z,15.47
2018-12-18T22:46:15.366Z,15.97
2018-12-18T22:51:19.085Z,16.00
2018-12-18T22:56:21.887Z,15.63
2018-12-18T23:01:30.358Z,15.07
2018-12-18T23:06:33.258Z,14.63
2018-12-18T23:11:35.858Z,14.37
2018-12-18T23:16:38.577Z,14.33
2018-12-18T23:21:41.309Z,14.27
2018-12-18T23:26:43.909Z,13.70
2018-12-18T23:31:46.740Z,14.43
2018-12-18T23:36:49.617Z,14.73
2018-12-18T23:41:52.436Z,15.07
2018-12-18T23:46:55.790Z,15.40
2018-12-18T23:51:58.494Z,16.47
2018-12-18T23:57:01.171Z,16.37
